Time;durP1;ratioP1;P1;durP2;ratioP2;P2;SDS_P1;SDS_P2;PMS_P1;PMS_P2;Temp;Humidity;BMP_temperature;BMP_pressure;BME280_temperature;BME280_humidity;BME280_pressure;Samples;Min_cycle;Max_cycle;Signal;HPM_P1;HPM_P2
2023/02/26 00:02:36;;;;;;;20.50;9.88;;;3.30;99.90;;;;;;20904946;28;20083;-60
2023/02/26 00:12:38;;;;;;;55.33;21.90;;;2.80;99.90;;;;;;20903621;28;20526;-60
2023/02/26 00:22:40;;;;;;;46.33;18.45;;;2.60;99.90;;;;;;20903689;28;20087;-66
2023/02/26 00:32:42;;;;;;;44.83;16.23;;;2.40;99.90;;;;;;20902407;28;20033;-67
2023/02/26 00:42:44;;;;;;;31.58;14.30;;;2.00;99.90;;;;;;20902883;28;20052;-60
2023/02/26 00:53:31;;;;;;;34.28;14.93;;;1.70;99.90;;;;;;20903700;28;20029;-59
2023/02/26 01:03:32;;;;;;;46.85;18.02;;;1.50;99.90;;;;;;20917176;28;20064;-60
2023/02/26 01:13:34;;;;;;;46.33;17.58;;;1.70;99.90;;;;;;20917463;28;20040;-59
2023/02/26 01:23:42;;;;;;;46.10;19.52;;;1.90;99.90;;;;;;20915444;28;20048;-59
2023/02/26 01:33:49;;;;;;;34.10;15.32;;;2.30;99.90;;;;;;20915259;28;20029;-66
2023/02/26 01:44:03;;;;;;;20.75;8.85;;;2.80;99.90;;;;;;20914232;28;20462;-59
2023/02/26 01:54:05;;;;;;;8.25;3.75;;;2.70;99.90;;;;;;20915678;28;20084;-59
2023/02/26 02:04:11;;;;;;;3.88;2.05;;;2.50;99.90;;;;;;20913309;28;20029;-59
2023/02/26 02:14:42;;;;;;;3.25;1.20;;;2.30;99.90;;;;;;20912743;28;20072;-66
2023/02/26 02:24:46;;;;;;;1.45;0.57;;;2.10;99.90;;;;;;20897886;28;20053;-59
2023/02/26 02:34:54;;;;;;;1.20;0.60;;;2.00;99.90;;;;;;20910115;28;20079;-60
2023/02/26 02:44:59;;;;;;;0.88;0.30;;;1.90;99.90;;;;;;20909258;28;20091;-59
2023/02/26 02:55:08;;;;;;;1.35;0.68;;;2.00;97.80;;;;;;20909933;28;20611;-59
2023/02/26 03:05:10;;;;;;;2.67;0.43;;;2.00;96.60;;;;;;20909260;28;20029;-67
2023/02/26 03:15:13;;;;;;;1.27;0.30;;;1.80;96.20;;;;;;20907844;28;20049;-66
2023/02/26 03:25:29;;;;;;;0.63;0.20;;;1.80;95.40;;;;;;20905883;28;20037;-59
2023/02/26 03:35:54;;;;;;;0.25;0.15;;;1.80;94.30;;;;;;20905722;28;20028;-59
2023/02/26 03:46:02;;;;;;;1.35;0.20;;;1.50;93.80;;;;;;20823518;28;20080;-60
2023/02/26 03:56:30;;;;;;;0.50;0.20;;;1.30;93.20;;;;;;20866648;28;20071;-62
2023/02/26 04:06:55;;;;;;;0.47;0.20;;;1.00;94.30;;;;;;20900027;28;20041;-59
2023/02/26 04:16:57;;;;;;;0.80;0.10;;;1.00;93.20;;;;;;20902914;28;20040;-60
2023/02/26 04:27:00;;;;;;;0.10;0.00;;;0.80;93.50;;;;;;20903753;28;20115;-59
2023/02/26 04:37:01;;;;;;;1.00;0.30;;;0.70;93.90;;;;;;20929929;28;20094;-61
2023/02/26 04:47:03;;;;;;;0.85;0.13;;;0.50;94.20;;;;;;20929140;28;20471;-65
2023/02/26 04:57:06;;;;;;;0.10;0.10;;;0.50;93.00;;;;;;20928748;28;20032;-66
2023/02/26 05:07:09;;;;;;;2.25;0.20;;;0.40;91.70;;;;;;20928515;28;20032;-65
2023/02/26 05:17:10;;;;;;;1.90;0.20;;;0.40;90.80;;;;;;20930083;28;20482;-65
2023/02/26 05:27:12;;;;;;;0.73;0.17;;;0.30;90.30;;;;;;20927754;28;20103;-66
2023/02/26 05:37:18;;;;;;;1.88;0.45;;;0.20;89.30;;;;;;20927288;28;20106;-59
2023/02/26 05:47:21;;;;;;;2.20;0.20;;;0.10;87.90;;;;;;20916066;28;20525;-59
2023/02/26 05:57:23;;;;;;;0.85;0.40;;;0.10;86.00;;;;;;20913536;28;20308;-59
2023/02/26 06:07:25;;;;;;;0.40;0.20;;;0.10;84.40;;;;;;20910253;28;20029;-61
2023/02/26 06:17:27;;;;;;;0.50;0.30;;;0.10;82.50;;;;;;20912857;28;20079;-59
2023/02/26 06:27:28;;;;;;;1.23;0.20;;;0.00;82.10;;;;;;20911914;28;20043;-59
2023/02/26 06:37:30;;;;;;;1.10;0.50;;;-0.10;83.00;;;;;;20910416;28;20466;-66
2023/02/26 06:47:31;;;;;;;2.72;0.50;;;0.00;80.80;;;;;;20910468;28;20072;-66
2023/02/26 06:57:33;;;;;;;1.33;0.40;;;-0.10;80.20;;;;;;20909452;28;20033;-66
2023/02/26 07:07:34;;;;;;;0.60;0.30;;;-0.10;80.00;;;;;;20907656;28;20169;-66
2023/02/26 07:17:36;;;;;;;0.75;0.40;;;-0.10;79.70;;;;;;20908626;28;20033;-66
2023/02/26 07:27:38;;;;;;;0.75;0.30;;;-0.20;78.60;;;;;;20907306;28;20094;-59
2023/02/26 07:37:39;;;;;;;1.27;0.30;;;-0.30;79.00;;;;;;20904795;28;20025;-59
2023/02/26 07:47:41;;;;;;;1.10;0.40;;;-0.40;80.60;;;;;;20904775;28;20045;-59
2023/02/26 07:57:43;;;;;;;0.40;0.20;;;-0.60;77.80;;;;;;20904071;28;20390;-59
2023/02/26 08:07:44;;;;;;;1.75;0.30;;;-0.70;79.10;;;;;;20904476;28;20036;-66
2023/02/26 08:17:46;;;;;;;0.60;0.20;;;-0.70;78.00;;;;;;20903060;28;20041;-66
2023/02/26 08:27:48;;;;;;;2.05;0.20;;;-0.70;78.00;;;;;;20902142;28;20090;-59
2023/02/26 08:37:50;;;;;;;1.30;0.30;;;-0.70;77.10;;;;;;20903309;28;20099;-66
2023/02/26 08:47:52;;;;;;;0.63;0.20;;;-0.70;78.20;;;;;;20903028;28;20037;-67
2023/02/26 08:57:54;;;;;;;0.47;0.20;;;-0.50;76.70;;;;;;20902568;28;20056;-66
2023/02/26 09:07:56;;;;;;;0.30;0.20;;;-0.50;75.50;;;;;;20901861;28;20048;-65
2023/02/26 09:17:57;;;;;;;0.35;0.20;;;-0.50;72.90;;;;;;20910526;28;20446;-66
2023/02/26 09:27:59;;;;;;;0.70;0.20;;;-0.40;72.50;;;;;;20893835;28;20117;-66
2023/02/26 09:38:02;;;;;;;0.43;0.25;;;-0.20;72.10;;;;;;20916048;28;20055;-66
2023/02/26 09:48:05;;;;;;;0.10;0.00;;;0.10;71.10;;;;;;20914651;28;20057;-57
2023/02/26 09:58:23;;;;;;;0.45;0.10;;;0.10;68.50;;;;;;20914713;28;20029;-66
2023/02/26 10:08:33;;;;;;;0.85;0.10;;;0.20;68.60;;;;;;20913581;28;20110;-65
2023/02/26 10:18:41;;;;;;;0.17;0.10;;;0.40;67.70;;;;;;20915334;28;20037;-59
2023/02/26 10:28:42;;;;;;;1.05;0.20;;;0.50;66.00;;;;;;20910277;28;20091;-65
2023/02/26 10:38:50;;;;;;;2.42;0.17;;;0.80;66.50;;;;;;20913077;28;20044;-66
2023/02/26 10:49:04;;;;;;;0.60;0.03;;;0.70;66.10;;;;;;20910857;28;20036;-57
2023/02/26 10:59:05;;;;;;;0.45;0.10;;;0.80;64.60;;;;;;20909842;28;20032;-56
2023/02/26 11:09:26;;;;;;;1.13;0.20;;;0.50;66.30;;;;;;20909060;28;20387;-58
2023/02/26 11:19:35;;;;;;;0.20;0.10;;;0.70;65.10;;;;;;20908545;28;20025;-58
2023/02/26 11:29:40;;;;;;;0.77;0.10;;;0.70;63.60;;;;;;20889280;28;20134;-66
2023/02/26 11:39:43;;;;;;;0.52;0.20;;;0.80;63.80;;;;;;20904032;28;20029;-66
2023/02/26 11:49:53;;;;;;;0.77;0.32;;;0.80;64.30;;;;;;20906308;28;20082;-66
2023/02/26 11:59:57;;;;;;;0.20;0.20;;;0.60;64.80;;;;;;20906442;28;20414;-59
2023/02/26 12:09:59;;;;;;;1.65;0.22;;;0.30;65.70;;;;;;20904508;28;20489;-58
2023/02/26 12:20:18;;;;;;;0.35;0.13;;;0.30;67.30;;;;;;20904296;28;20079;-59
2023/02/26 12:30:44;;;;;;;8.27;0.95;;;0.20;67.00;;;;;;20903486;28;20103;-66
2023/02/26 12:40:55;;;;;;;0.73;0.30;;;0.20;67.90;;;;;;20904143;28;20079;-66
2023/02/26 12:51:35;;;;;;;0.30;0.10;;;0.30;67.00;;;;;;20908200;28;20082;-57
2023/02/26 13:02:00;;;;;;;0.20;0.10;;;0.20;66.40;;;;;;20918659;28;20037;-59
2023/02/26 13:12:11;;;;;;;4.15;1.45;;;0.20;67.50;;;;;;20916593;28;20045;-66
2023/02/26 13:22:21;;;;;;;1.23;0.20;;;0.30;69.40;;;;;;20916459;28;20086;-66
2023/02/26 13:32:26;;;;;;;1.53;0.80;;;0.20;68.20;;;;;;20916021;28;20033;-66
2023/02/26 13:42:50;;;;;;;0.32;0.10;;;0.00;71.20;;;;;;20916259;28;20371;-66
2023/02/26 13:53:53;;;;;;;0.88;0.20;;;0.10;70.80;;;;;;20915099;28;20074;-59
2023/02/26 14:04:13;;;;;;;0.28;0.13;;;-0.20;72.70;;;;;;20906048;28;20049;-59
2023/02/26 14:14:21;;;;;;;3.22;0.25;;;-0.20;74.10;;;;;;20912077;28;20037;-58
2023/02/26 14:24:36;;;;;;;0.43;0.15;;;-0.40;74.50;;;;;;20911442;28;20041;-60
2023/02/26 14:35:05;;;;;;;0.50;0.20;;;-0.20;73.80;;;;;;20894587;28;20386;-66
2023/02/26 14:45:27;;;;;;;2.15;0.20;;;-0.40;77.10;;;;;;20911130;28;20041;-66
2023/02/26 14:55:55;;;;;;;0.95;0.20;;;-0.70;77.50;;;;;;20911008;28;20029;-68
2023/02/26 15:06:18;;;;;;;0.90;0.20;;;-0.80;78.70;;;;;;20909298;28;20377;-66
2023/02/26 15:16:54;;;;;;;0.30;0.10;;;-1.10;79.40;;;;;;20908466;28;20048;-66
2023/02/26 15:27:00;;;;;;;0.35;0.10;;;-1.00;79.30;;;;;;20907534;28;20032;-66
2023/02/26 15:37:02;;;;;;;0.70;0.30;;;-1.00;79.60;;;;;;20905808;28;20079;-65
2023/02/26 15:47:04;;;;;;;2.20;0.20;;;-1.20;81.50;;;;;;20906369;28;20032;-59
2023/02/26 15:57:08;;;;;;;1.27;0.20;;;-1.20;79.40;;;;;;20905577;28;20470;-66
2023/02/26 16:07:11;;;;;;;0.10;0.10;;;-1.30;78.80;;;;;;20901835;28;20063;-58
2023/02/26 16:17:28;;;;;;;0.82;0.20;;;-1.30;77.80;;;;;;20821158;28;20119;-66
2023/02/26 16:27:31;;;;;;;1.00;0.10;;;-1.30;76.90;;;;;;20895649;28;20041;-66
2023/02/26 16:37:37;;;;;;;0.35;0.15;;;-1.40;78.50;;;;;;20943028;28;20086;-65
2023/02/26 16:47:39;;;;;;;0.93;0.10;;;-1.40;77.90;;;;;;20903074;28;20485;-59
2023/02/26 16:57:43;;;;;;;0.63;0.43;;;-1.40;78.60;;;;;;20901579;28;20585;-66
2023/02/26 17:07:57;;;;;;;0.57;0.10;;;-1.50;77.40;;;;;;20902382;28;20075;-59
2023/02/26 17:17:58;;;;;;;0.25;0.10;;;-1.60;76.90;;;;;;20902145;28;20086;-66
2023/02/26 17:28:01;;;;;;;1.38;0.20;;;-1.60;77.20;;;;;;20899921;28;20071;-59
2023/02/26 17:38:03;;;;;;;0.73;0.20;;;-1.60;78.10;;;;;;20905031;28;20440;-66
2023/02/26 17:48:05;;;;;;;0.30;0.20;;;-1.70;78.80;;;;;;20897724;28;20025;-66
2023/02/26 17:58:20;;;;;;;0.47;0.10;;;-1.70;79.20;;;;;;20914737;28;20048;-58
2023/02/26 18:08:26;;;;;;;0.68;0.20;;;-1.70;79.40;;;;;;20913802;28;20041;-66
2023/02/26 18:18:28;;;;;;;0.70;0.10;;;-1.90;82.70;;;;;;20912172;28;20094;-66
2023/02/26 18:28:30;;;;;;;0.20;0.10;;;-2.10;83.20;;;;;;20912604;28;20045;-58
2023/02/26 18:38:32;;;;;;;0.40;0.20;;;-2.10;85.10;;;;;;20911739;28;20403;-66
2023/02/26 18:48:33;;;;;;;0.40;0.10;;;-2.20;86.90;;;;;;20910419;28;20037;-65
2023/02/26 18:58:35;;;;;;;0.22;0.10;;;-2.30;90.00;;;;;;20875665;28;20474;-66
2023/02/26 19:08:37;;;;;;;2.55;0.15;;;-2.50;90.90;;;;;;20907862;28;20044;-58
2023/02/26 19:18:39;;;;;;;1.35;0.30;;;-2.60;91.80;;;;;;20908943;28;20025;-63
2023/02/26 19:28:41;;;;;;;0.52;0.10;;;-2.80;92.80;;;;;;20907423;28;20049;-58
2023/02/26 19:38:46;;;;;;;0.63;0.20;;;-2.90;93.50;;;;;;20906981;28;20333;-65
2023/02/26 19:48:48;;;;;;;1.05;0.20;;;-3.00;94.50;;;;;;20906339;28;20040;-56
2023/02/26 19:58:50;;;;;;;0.70;0.20;;;-3.10;94.90;;;;;;20904888;28;20037;-57
2023/02/26 20:08:52;;;;;;;2.50;0.20;;;-3.20;95.80;;;;;;20906328;28;20045;-59
2023/02/26 20:18:54;;;;;;;0.50;0.20;;;-3.20;96.80;;;;;;20904291;28;20029;-57
2023/02/26 20:28:56;;;;;;;1.00;0.30;;;-3.40;97.80;;;;;;20902415;28;20045;-58
2023/02/26 20:39:01;;;;;;;1.58;0.40;;;-3.50;98.30;;;;;;20903667;28;20037;-58
2023/02/26 20:49:03;;;;;;;1.25;0.20;;;-3.50;98.20;;;;;;20902719;28;20037;-59
2023/02/26 20:59:04;;;;;;;0.47;0.20;;;-3.50;98.50;;;;;;20901236;28;20037;-65
2023/02/26 21:09:09;;;;;;;0.50;0.20;;;-3.50;98.90;;;;;;20902808;28;20091;-59
2023/02/26 21:19:11;;;;;;;0.60;0.22;;;-3.60;98.50;;;;;;20918063;28;20037;-65
2023/02/26 21:29:13;;;;;;;1.00;0.17;;;-3.60;98.90;;;;;;20915757;28;20048;-66
2023/02/26 21:39:14;;;;;;;0.75;0.22;;;-3.50;99.20;;;;;;20898954;28;20029;-66
2023/02/26 21:49:17;;;;;;;0.85;0.20;;;-3.50;99.80;;;;;;20915799;28;20032;-66
2023/02/26 21:59:19;;;;;;;0.40;0.30;;;-3.60;99.90;;;;;;20915161;28;20032;-66
2023/02/26 22:09:21;;;;;;;0.55;0.30;;;-3.60;99.90;;;;;;20914141;28;20049;-59
2023/02/26 22:19:23;;;;;;;0.55;0.30;;;-3.70;99.90;;;;;;20913452;28;20035;-65
2023/02/26 22:29:25;;;;;;;2.47;0.57;;;-3.70;99.90;;;;;;20911567;28;20040;-66
2023/02/26 22:39:27;;;;;;;1.80;0.40;;;-3.80;99.90;;;;;;20911648;28;20041;-59
2023/02/26 22:49:28;;;;;;;2.13;0.47;;;-3.80;99.90;;;;;;20911231;28;20037;-59
2023/02/26 22:59:30;;;;;;;0.50;0.20;;;-4.00;99.90;;;;;;20910451;28;20040;-58
2023/02/26 23:09:31;;;;;;;1.00;0.40;;;-4.00;99.90;;;;;;20909065;28;20045;-58
2023/02/26 23:19:33;;;;;;;0.82;0.40;;;-4.00;99.90;;;;;;20907425;28;20033;-59
2023/02/26 23:29:36;;;;;;;3.47;0.50;;;-4.10;99.90;;;;;;20907573;28;20041;-59
2023/02/26 23:39:38;;;;;;;1.75;0.40;;;-4.20;99.90;;;;;;20906342;28;20095;-59
2023/02/26 23:49:39;;;;;;;0.65;0.40;;;-4.40;99.90;;;;;;20906462;28;20035;-66
2023/02/26 23:59:41;;;;;;;0.80;0.50;;;-4.50;99.90;;;;;;20905552;28;20041;-58
